Delavan, Minnesota
Current Conditions -  °F | °C
As of 7:35 PM on Tuesday 25 Nov 2014 (Local Time) from KFRM Reporting Station
Clear Clear  
Wind Chill: 16°   Ceiling: Unl
Heat Index: 27°   Visibility: 10mi
Dew Point: 12°   Wind: 13mph
Humidity: 55%   Direction: 150°SSE
Pressure: 29.96"   Gusts: NA
Location:  43.77°N, 94.02°W
Report Text: KFRM 260135Z AUTO 15011KT 10SM CLR M03/M11 A2996 RMK AO1
Loading
Personal Weather Stations






























Interactive Weather Map New forecast layout! Learn more

10-Day Weather Forecast

Advertisements
Track Severe Weather on mobile